createdAt,value
2023-04-19T00:03:35.065Z,101078.06
2023-04-19T00:06:03.881Z,101078.23
2023-04-19T00:08:32.004Z,101082.52
2023-04-19T00:11:01.423Z,101083.06
2023-04-19T00:13:29.989Z,101081.46
2023-04-19T00:15:58.339Z,101082.54
2023-04-19T00:18:26.632Z,101085.38
2023-04-19T00:20:54.786Z,101085.90
2023-04-19T00:23:23.029Z,101083.76
2023-04-19T00:25:52.822Z,101085.89
2023-04-19T00:28:21.538Z,101081.07
2023-04-19T00:30:49.671Z,101079.27
2023-04-19T00:33:18.611Z,101079.77
2023-04-19T00:35:46.906Z,101075.66
2023-04-19T00:38:15.605Z,101068.31
2023-04-19T00:40:44.325Z,101071.64
2023-04-19T00:43:17.814Z,101065.16
2023-04-19T00:45:48.204Z,101065.85
2023-04-19T00:48:17.078Z,101065.27
2023-04-19T00:50:46.138Z,101060.82
2023-04-19T00:53:16.037Z,101055.08
2023-04-19T00:55:44.864Z,101050.61
2023-04-19T00:58:14.708Z,101047.04
2023-04-19T01:00:44.428Z,101044.67
2023-04-19T01:03:13.952Z,101042.68
2023-04-19T01:05:42.803Z,101040.69
2023-04-19T01:08:11.139Z,101038.17
2023-04-19T01:10:39.282Z,101030.87
2023-04-19T01:13:07.790Z,101031.91
2023-04-19T01:15:37.459Z,101028.86
2023-04-19T01:18:05.850Z,101027.92
2023-04-19T01:20:34.508Z,101025.08
2023-04-19T01:23:02.774Z,101023.98
2023-04-19T01:25:30.870Z,101019.91
2023-04-19T01:27:59.298Z,101012.07
2023-04-19T01:30:27.674Z,101013.27
2023-04-19T01:32:55.821Z,101012.36
2023-04-19T01:35:24.177Z,101010.86
2023-04-19T01:37:53.061Z,101013.53
2023-04-19T01:40:24.508Z,101008.52
2023-04-19T01:42:54.284Z,101005.64
2023-04-19T01:45:22.666Z,101000.84
2023-04-19T01:47:51.791Z,101002.59
2023-04-19T01:50:20.765Z,101004.17
2023-04-19T01:52:49.383Z,101003.80
2023-04-19T01:55:17.764Z,101000.21
2023-04-19T01:57:45.897Z,100998.74
2023-04-19T02:00:14.777Z,101001.20
2023-04-19T02:02:44.250Z,100997.80
2023-04-19T02:05:13.884Z,100999.75
2023-04-19T02:07:42.572Z,100995.45
2023-04-19T02:10:12.332Z,100993.48
2023-04-19T02:12:41.677Z,100991.48
2023-04-19T02:15:10.502Z,100994.47
2023-04-19T02:17:38.954Z,100997.99
2023-04-19T02:20:08.099Z,101001.89
2023-04-19T02:22:36.340Z,101001.36
2023-04-19T02:25:05.482Z,101001.34
2023-04-19T02:27:33.667Z,101002.91
2023-04-19T02:30:01.899Z,101003.73
2023-04-19T02:32:31.376Z,101004.24
2023-04-19T02:34:59.823Z,101002.08
2023-04-19T02:37:28.661Z,101002.41
2023-04-19T02:39:56.730Z,101002.13
2023-04-19T02:42:24.943Z,101001.73
2023-04-19T02:44:53.182Z,101000.27
2023-04-19T02:47:26.636Z,100999.36
2023-04-19T02:49:55.591Z,100995.78
2023-04-19T02:52:23.773Z,100998.23
2023-04-19T02:54:52.400Z,100994.46
2023-04-19T02:57:20.507Z,100991.06
2023-04-19T02:59:49.312Z,100990.14
2023-04-19T03:02:18.841Z,100991.02
2023-04-19T03:04:48.913Z,100987.43
2023-04-19T03:07:16.974Z,100987.95
2023-04-19T03:09:45.504Z,100988.64
2023-04-19T03:12:13.634Z,100989.15
2023-04-19T03:14:41.827Z,100989.31
2023-04-19T03:17:10.150Z,100990.52
2023-04-19T03:19:38.319Z,100986.02
2023-04-19T03:22:06.649Z,100984.20
2023-04-19T03:24:37.795Z,100982.94
2023-04-19T03:27:06.845Z,100985.39
2023-04-19T03:29:35.572Z,100984.96
2023-04-19T03:32:03.960Z,100981.02
2023-04-19T03:34:32.133Z,100976.95
2023-04-19T03:37:01.234Z,100974.62
2023-04-19T03:39:29.595Z,100972.30
2023-04-19T03:41:57.652Z,100971.19
2023-04-19T03:44:25.934Z,100970.27
2023-04-19T03:46:54.117Z,100972.02
2023-04-19T03:49:22.782Z,100975.38
2023-04-19T03:51:51.965Z,100974.25
2023-04-19T03:54:20.503Z,100971.39
2023-04-19T03:56:48.705Z,100974.73
2023-04-19T03:59:17.027Z,100978.24
2023-04-19T04:01:46.674Z,100976.79
2023-04-19T04:04:15.474Z,100978.36
2023-04-19T04:06:44.498Z,100973.90
2023-04-19T04:09:12.855Z,100972.42
2023-04-19T04:11:41.285Z,100973.27
2023-04-19T04:14:09.469Z,100975.01
2023-04-19T04:16:38.211Z,100976.39
2023-04-19T04:19:07.412Z,100974.77
2023-04-19T04:21:35.611Z,100974.38
2023-04-19T04:24:04.187Z,100974.86
2023-04-19T04:26:32.717Z,100971.42
2023-04-19T04:29:01.543Z,100972.29
2023-04-19T04:31:29.880Z,100972.10
2023-04-19T04:33:58.679Z,100968.88
2023-04-19T04:36:27.485Z,100968.35
2023-04-19T04:38:56.232Z,100972.05
2023-04-19T04:41:24.240Z,100971.33
2023-04-19T04:44:08.304Z,100970.41
2023-04-19T04:46:39.394Z,100969.51
2023-04-19T04:49:07.534Z,100967.54
2023-04-19T04:51:36.271Z,100964.86
2023-04-19T04:54:04.734Z,100965.54
2023-04-19T04:56:32.944Z,100966.56
2023-04-19T04:59:01.152Z,100969.91
2023-04-19T05:01:30.902Z,100973.09
2023-04-19T05:04:00.583Z,100970.24
2023-04-19T05:06:28.869Z,100971.80
2023-04-19T05:08:57.416Z,100970.66
2023-04-19T05:11:27.615Z,100970.98
2023-04-19T05:13:55.804Z,100974.14
2023-04-19T05:16:24.302Z,100979.06
2023-04-19T05:18:52.563Z,100982.58
2023-04-19T05:21:20.745Z,100989.30
2023-04-19T05:23:49.717Z,100990.01
2023-04-19T05:26:17.925Z,100994.05
2023-04-19T05:28:46.644Z,100998.79
2023-04-19T05:31:15.289Z,101006.39
2023-04-19T05:33:44.086Z,101008.33
2023-04-19T05:36:12.238Z,101012.23
2023-04-19T05:38:40.551Z,101012.44
2023-04-19T05:41:08.869Z,101014.40
2023-04-19T05:43:37.053Z,101010.84
2023-04-19T05:46:06.049Z,101013.52
2023-04-19T05:48:34.312Z,101014.79
2023-04-19T05:51:03.613Z,101012.19
2023-04-19T05:53:31.740Z,101010.95
2023-04-19T05:55:59.867Z,101013.83
2023-04-19T05:58:28.023Z,101014.37
2023-04-19T06:00:57.650Z,101010.64
2023-04-19T06:03:28.737Z,101014.73
2023-04-19T06:06:00.466Z,101013.33
2023-04-19T06:08:29.379Z,101015.70
2023-04-19T06:11:02.119Z,101015.05
2023-04-19T06:13:33.541Z,101012.27
2023-04-19T06:16:02.925Z,101015.88
2023-04-19T06:18:31.448Z,101012.58
2023-04-19T06:21:00.224Z,101007.18
2023-04-19T06:23:28.442Z,101006.20
2023-04-19T06:25:57.112Z,101007.89
2023-04-19T06:28:25.350Z,101002.74
2023-04-19T06:30:53.588Z,101003.50
2023-04-19T06:33:22.103Z,101005.25
2023-04-19T06:35:50.399Z,101001.98
2023-04-19T06:38:19.190Z,101004.70
2023-04-19T06:40:47.544Z,101000.99
2023-04-19T06:43:15.849Z,100999.27
2023-04-19T06:45:44.457Z,101002.90
2023-04-19T06:48:12.830Z,101005.67
2023-04-19T06:50:41.522Z,101002.77
2023-04-19T06:53:09.958Z,101000.58
2023-04-19T06:55:38.891Z,101004.25
2023-04-19T06:58:07.321Z,101005.45
2023-04-19T07:00:35.684Z,101004.00
2023-04-19T07:03:05.340Z,101000.23
2023-04-19T07:05:34.076Z,100999.84
2023-04-19T07:08:02.227Z,100994.61
2023-04-19T07:10:30.397Z,100997.22
2023-04-19T07:12:58.591Z,100995.35
2023-04-19T07:15:27.995Z,100993.88
2023-04-19T07:17:56.823Z,100992.53
2023-04-19T07:20:26.367Z,100998.84
2023-04-19T07:22:55.147Z,100999.07
2023-04-19T07:25:24.529Z,101005.35
2023-04-19T07:27:54.434Z,101003.81
2023-04-19T07:30:23.240Z,101003.28
2023-04-19T07:32:51.957Z,101002.38
2023-04-19T07:35:20.913Z,101006.27
2023-04-19T07:37:49.745Z,101001.23
2023-04-19T07:40:18.789Z,101002.58
2023-04-19T07:42:46.948Z,101004.98
2023-04-19T07:45:15.906Z,101006.84
2023-04-19T07:47:45.406Z,101010.13
2023-04-19T07:50:14.110Z,101007.61
2023-04-19T07:52:42.510Z,101010.48
2023-04-19T07:55:11.685Z,101007.64
2023-04-19T07:57:41.862Z,101010.17
2023-04-19T08:00:10.800Z,101009.98
2023-04-19T08:02:39.689Z,101006.55
2023-04-19T08:05:08.958Z,101008.95
2023-04-19T08:07:38.397Z,101012.59
2023-04-19T08:10:09.346Z,101018.17
2023-04-19T08:12:45.262Z,101013.99
2023-04-19T08:15:52.514Z,101012.41
2023-04-19T08:18:08.139Z,101012.06
2023-04-19T08:20:37.373Z,101009.50
2023-04-19T08:23:17.714Z,101009.16
2023-04-19T08:25:51.518Z,101010.73
2023-04-19T08:28:21.362Z,101012.24
2023-04-19T08:30:51.067Z,101014.83
2023-04-19T08:33:19.837Z,101019.33
2023-04-19T08:35:48.215Z,101017.09
2023-04-19T08:38:16.890Z,101024.45
2023-04-19T08:40:53.840Z,101025.48
2023-04-19T08:43:24.786Z,101025.02
2023-04-19T08:45:55.280Z,101027.77
2023-04-19T08:48:24.561Z,101026.41
2023-04-19T08:51:04.526Z,101028.79
2023-04-19T08:53:35.042Z,101026.44
2023-04-19T08:56:17.381Z,101029.11
2023-04-19T08:59:07.503Z,101026.91
2023-04-19T09:01:44.518Z,101023.44
2023-04-19T09:06:44.671Z,101032.14
2023-04-19T09:09:34.177Z,101029.23
2023-04-19T09:12:18.556Z,101036.56
2023-04-19T09:15:00.706Z,101041.77
2023-04-19T09:17:32.471Z,101036.66
2023-04-19T09:20:01.042Z,101041.89
2023-04-19T09:22:29.776Z,101039.95
2023-04-19T09:27:35.433Z,101035.92
2023-04-19T09:30:10.805Z,101036.97
2023-04-19T09:32:48.795Z,101034.21
2023-04-19T09:35:17.782Z,101029.59
2023-04-19T09:40:33.101Z,101039.10
2023-04-19T09:45:45.375Z,101040.68
2023-04-19T09:48:15.047Z,101044.11
2023-04-19T09:51:05.941Z,101044.31
2023-04-19T09:53:40.864Z,101046.81
2023-04-19T09:56:11.868Z,101051.02
2023-04-19T09:58:50.075Z,101051.11
2023-04-19T10:01:25.110Z,101051.95
2023-04-19T10:03:54.457Z,101046.45
2023-04-19T10:08:56.232Z,101047.76
2023-04-19T10:11:27.294Z,101045.63
2023-04-19T10:14:00.232Z,101044.93
2023-04-19T10:16:30.984Z,101041.24
2023-04-19T10:19:03.760Z,101037.94
2023-04-19T10:21:32.907Z,101038.77
2023-04-19T10:24:02.220Z,101035.50
2023-04-19T10:26:30.990Z,101035.45
2023-04-19T10:28:59.454Z,101038.59
2023-04-19T10:31:27.811Z,101036.88
2023-04-19T10:33:56.235Z,101037.70
2023-04-19T10:36:28.340Z,101036.45
2023-04-19T10:38:56.610Z,101035.02
2023-04-19T10:41:57.563Z,101032.23
2023-04-19T10:44:26.198Z,101032.23
2023-04-19T10:46:54.481Z,101024.65
2023-04-19T10:49:24.638Z,101022.23
2023-04-19T10:51:52.879Z,101023.16
2023-04-19T10:54:33.035Z,101018.48
2023-04-19T10:57:01.268Z,101019.21
2023-04-19T10:59:31.563Z,101019.48
2023-04-19T11:02:02.567Z,101017.29
2023-04-19T11:04:40.021Z,101011.71
2023-04-19T11:07:08.769Z,101007.47
2023-04-19T11:09:39.263Z,101009.39
2023-04-19T11:12:13.805Z,101000.69
2023-04-19T11:14:51.555Z,101000.01
2023-04-19T11:17:21.497Z,100998.58
2023-04-19T11:20:01.646Z,100993.95
2023-04-19T11:22:34.332Z,100992.66
2023-04-19T11:25:07.116Z,100990.46
2023-04-19T11:27:35.506Z,100977.05
2023-04-19T11:30:07.646Z,100977.35
2023-04-19T11:32:36.982Z,100975.84
2023-04-19T11:35:09.150Z,100977.56
2023-04-19T11:37:40.593Z,100971.73
2023-04-19T11:40:09.401Z,100976.56
2023-04-19T11:42:37.617Z,100968.70
2023-04-19T11:45:13.232Z,100971.55
2023-04-19T11:47:51.928Z,100970.43
2023-04-19T11:50:58.543Z,100970.31
2023-04-19T11:53:28.079Z,100962.09
2023-04-19T11:55:57.374Z,100956.97
2023-04-19T11:58:27.889Z,100955.21
2023-04-19T12:00:57.902Z,100952.75
2023-04-19T12:03:27.014Z,100945.35
2023-04-19T12:05:58.778Z,100946.41
2023-04-19T12:08:32.231Z,100946.77
2023-04-19T12:11:03.574Z,100947.86
2023-04-19T12:13:33.427Z,100941.20
2023-04-19T12:16:01.756Z,100937.98
2023-04-19T12:18:47.115Z,100934.42
2023-04-19T12:21:33.142Z,100933.33
2023-04-19T12:24:02.844Z,100934.81
2023-04-19T12:26:32.366Z,100932.45
2023-04-19T12:29:02.810Z,100926.18
2023-04-19T12:31:31.922Z,100926.33
2023-04-19T12:34:00.317Z,100924.84
2023-04-19T12:36:28.796Z,100925.80
2023-04-19T12:38:57.044Z,100914.44
2023-04-19T12:41:25.272Z,100921.05
2023-04-19T12:43:53.883Z,100924.80
2023-04-19T12:46:22.194Z,100920.40
2023-04-19T12:48:50.703Z,100911.73
2023-04-19T12:51:19.612Z,100918.90
2023-04-19T12:53:49.395Z,100913.04
2023-04-19T12:56:18.252Z,100908.32
2023-04-19T12:58:46.587Z,100914.29
2023-04-19T13:01:17.729Z,100905.66
2023-04-19T13:03:46.190Z,100905.40
2023-04-19T13:06:14.726Z,100907.09
2023-04-19T13:08:46.557Z,100907.16
2023-04-19T13:11:16.951Z,100901.77
2023-04-19T13:13:45.416Z,100897.39
2023-04-19T13:16:13.868Z,100900.77
2023-04-19T13:18:42.376Z,100899.80
2023-04-19T13:21:10.535Z,100895.83
2023-04-19T13:23:38.761Z,100896.29
2023-04-19T13:26:07.315Z,100896.59
2023-04-19T13:28:35.669Z,100897.45
2023-04-19T13:31:06.048Z,100889.78
2023-04-19T13:33:34.581Z,100889.45
2023-04-19T13:36:03.037Z,100884.45
2023-04-19T13:38:31.772Z,100880.70
2023-04-19T13:41:03.964Z,100886.96
2023-04-19T13:43:32.724Z,100885.38
2023-04-19T13:46:01.055Z,100879.73
2023-04-19T13:48:29.936Z,100877.89
2023-04-19T13:50:59.802Z,100868.67
2023-04-19T13:53:28.638Z,100869.46
2023-04-19T13:55:57.290Z,100875.13
2023-04-19T13:58:25.638Z,100874.13
2023-04-19T14:00:54.557Z,100868.22
2023-04-19T14:03:24.687Z,100865.45
2023-04-19T14:05:53.221Z,100865.27
2023-04-19T14:08:21.472Z,100862.62
2023-04-19T14:10:51.459Z,100860.63
2023-04-19T14:13:19.797Z,100856.17
2023-04-19T14:15:48.140Z,100852.42
2023-04-19T14:18:16.399Z,100844.14
2023-04-19T14:20:44.809Z,100850.11
2023-04-19T14:23:13.178Z,100855.40
2023-04-19T14:25:41.461Z,100855.58
2023-04-19T14:28:10.332Z,100848.04
2023-04-19T14:30:39.363Z,100844.91
2023-04-19T14:33:08.000Z,100847.30
2023-04-19T14:35:36.487Z,100841.64
2023-04-19T14:38:05.168Z,100838.63
2023-04-19T14:40:34.006Z,100832.30
2023-04-19T14:43:02.315Z,100831.95
2023-04-19T14:45:30.562Z,100832.91
2023-04-19T14:47:59.045Z,100830.12
2023-04-19T14:50:27.309Z,100838.08
2023-04-19T14:52:55.611Z,100838.77
2023-04-19T14:55:25.708Z,100840.95
2023-04-19T14:57:53.850Z,100837.16
2023-04-19T15:00:23.434Z,100834.95
2023-04-19T15:02:51.921Z,100838.14
2023-04-19T15:05:23.408Z,100834.55
2023-04-19T15:07:51.996Z,100833.14
2023-04-19T15:10:20.092Z,100831.23
2023-04-19T15:12:48.304Z,100832.70
2023-04-19T15:15:16.919Z,100833.67
2023-04-19T15:17:45.220Z,100835.67
2023-04-19T15:20:13.777Z,100837.23
2023-04-19T15:22:42.238Z,100837.90
2023-04-19T15:25:13.391Z,100837.64
2023-04-19T15:27:41.566Z,100839.84
2023-04-19T15:30:10.745Z,100837.58
2023-04-19T15:32:39.221Z,100847.34
2023-04-19T15:35:08.102Z,100846.80
2023-04-19T15:37:37.370Z,100845.07
2023-04-19T15:40:06.369Z,100844.20
2023-04-19T15:42:35.233Z,100840.27
2023-04-19T15:45:04.722Z,100840.96
2023-04-19T15:47:34.591Z,100838.45
2023-04-19T15:50:02.897Z,100836.17
2023-04-19T15:52:31.129Z,100837.44
2023-04-19T15:54:59.357Z,100833.87
2023-04-19T15:57:27.747Z,100835.14
2023-04-19T15:59:55.933Z,100829.06
2023-04-19T16:02:24.190Z,100830.67
2023-04-19T16:04:52.771Z,100831.79
2023-04-19T16:07:22.036Z,100833.30
2023-04-19T16:09:50.438Z,100833.71
2023-04-19T16:12:18.653Z,100829.79
2023-04-19T16:14:47.466Z,100829.81
2023-04-19T16:17:15.722Z,100830.86
2023-04-19T16:19:44.024Z,100832.99
2023-04-19T16:22:12.713Z,100833.73
2023-04-19T16:24:41.277Z,100840.11
2023-04-19T16:27:09.452Z,100828.98
2023-04-19T16:29:37.632Z,100825.86
2023-04-19T16:32:06.628Z,100826.14
2023-04-19T16:34:35.092Z,100830.64
2023-04-19T16:37:03.936Z,100833.75
2023-04-19T16:39:32.402Z,100832.90
2023-04-19T16:42:00.674Z,100834.16
2023-04-19T16:44:29.403Z,100832.40
2023-04-19T16:46:57.636Z,100832.38
2023-04-19T16:49:26.025Z,100831.86
2023-04-19T16:51:54.727Z,100828.52
2023-04-19T16:54:23.205Z,100834.10
2023-04-19T16:56:51.521Z,100827.33
2023-04-19T16:59:19.833Z,100832.86
2023-04-19T17:01:50.664Z,100834.50
2023-04-19T17:04:18.882Z,100839.66
2023-04-19T17:06:47.305Z,100840.70
2023-04-19T17:09:15.534Z,100843.92
2023-04-19T17:11:44.141Z,100839.24
2023-04-19T17:14:12.598Z,100841.91
2023-04-19T17:16:40.763Z,100832.63
2023-04-19T17:19:08.897Z,100832.44
2023-04-19T17:21:40.620Z,100828.14
2023-04-19T17:24:09.104Z,100828.52
2023-04-19T17:26:39.067Z,100826.38
2023-04-19T17:29:09.724Z,100826.03
2023-04-19T17:31:38.832Z,100822.51
2023-04-19T17:34:08.481Z,100819.50
2023-04-19T17:36:38.606Z,100826.13
2023-04-19T17:39:08.427Z,100825.27
2023-04-19T17:41:37.731Z,100826.21
2023-04-19T17:44:06.875Z,100821.94
2023-04-19T17:46:35.098Z,100823.21
2023-04-19T17:49:03.383Z,100821.45
2023-04-19T17:51:32.408Z,100826.48
2023-04-19T17:54:00.583Z,100829.33
2023-04-19T17:56:28.874Z,100826.48
2023-04-19T17:58:57.889Z,100828.81
2023-04-19T18:01:27.448Z,100822.59
2023-04-19T18:03:56.705Z,100822.05
2023-04-19T18:06:25.286Z,100824.20
2023-04-19T18:08:53.888Z,100824.92
2023-04-19T18:11:22.043Z,100827.08
2023-04-19T18:13:51.866Z,100835.48
2023-04-19T18:16:21.857Z,100837.98
2023-04-19T18:18:54.297Z,100838.52
2023-04-19T18:21:23.801Z,100841.02
2023-04-19T18:23:53.709Z,100842.11
2023-04-19T18:26:25.371Z,100844.23
2023-04-19T18:28:54.856Z,100846.39
2023-04-19T18:31:25.694Z,100846.21
2023-04-19T18:34:00.482Z,100849.06
2023-04-19T18:36:30.162Z,100854.95
2023-04-19T18:39:00.770Z,100864.77
2023-04-19T18:41:30.028Z,100868.17
2023-04-19T18:44:30.012Z,100869.23
2023-04-19T18:46:52.770Z,100868.89
2023-04-19T18:49:25.283Z,100868.71
2023-04-19T18:51:54.596Z,100874.44
2023-04-19T18:54:23.642Z,100879.08
2023-04-19T18:59:29.968Z,100885.29
2023-04-19T19:02:00.432Z,100889.58
2023-04-19T19:04:46.815Z,100888.50
2023-04-19T19:07:34.969Z,100892.95
2023-04-19T19:12:42.160Z,100890.46
2023-04-19T19:15:15.031Z,100889.21
2023-04-19T19:17:48.828Z,100890.48
2023-04-19T19:20:24.303Z,100894.40
2023-04-19T19:22:55.385Z,100899.20
2023-04-19T19:25:26.830Z,100901.52
2023-04-19T19:28:07.537Z,100904.73
2023-04-19T19:30:39.498Z,100910.45
2023-04-19T19:33:12.098Z,100914.20
2023-04-19T19:35:41.925Z,100915.80
2023-04-19T19:38:11.837Z,100921.87
2023-04-19T19:43:20.264Z,100928.85
2023-04-19T19:45:50.448Z,100934.36
2023-04-19T19:48:18.650Z,100940.41
2023-04-19T19:51:17.195Z,100942.76
2023-04-19T19:53:35.261Z,100950.09
2023-04-19T19:56:04.318Z,100953.84
2023-04-19T19:58:49.720Z,100962.77
2023-04-19T20:01:22.500Z,100964.55
2023-04-19T20:03:56.539Z,100965.63
2023-04-19T20:07:21.506Z,100965.61
2023-04-19T20:09:13.501Z,100971.86
2023-04-19T20:11:42.838Z,100971.52
2023-04-19T20:14:13.086Z,100975.08
2023-04-19T20:16:42.907Z,100971.69
2023-04-19T20:19:12.380Z,100974.18
2023-04-19T20:21:41.706Z,100983.66
2023-04-19T20:24:13.966Z,100986.14
2023-04-19T20:26:43.738Z,100975.44
2023-04-19T20:29:13.721Z,100968.99
2023-04-19T20:31:43.233Z,100967.93
2023-04-19T20:34:11.515Z,100966.69
2023-04-19T20:36:41.013Z,100965.63
2023-04-19T20:39:10.765Z,100969.19
2023-04-19T20:41:40.187Z,100973.64
2023-04-19T20:44:10.164Z,100978.30
2023-04-19T20:46:39.283Z,100978.46
2023-04-19T20:49:08.934Z,100984.17
2023-04-19T20:51:39.040Z,100987.02
2023-04-19T20:54:08.336Z,100982.92
2023-04-19T20:56:36.447Z,100989.89
2023-04-19T20:59:04.754Z,100996.67
2023-04-19T21:01:33.462Z,101001.66
2023-04-19T21:04:01.933Z,101007.02
2023-04-19T21:06:31.038Z,101006.13
2023-04-19T21:08:59.283Z,101010.41
2023-04-19T21:11:27.387Z,101017.04
2023-04-19T21:13:56.058Z,101016.48
2023-04-19T21:16:24.358Z,101012.37
2023-04-19T21:18:53.074Z,101005.06
2023-04-19T21:21:21.590Z,101001.84
2023-04-19T21:23:49.890Z,101011.67
2023-04-19T21:26:18.571Z,101021.48
2023-04-19T21:28:47.172Z,101025.77
2023-04-19T21:31:15.653Z,101026.66
2023-04-19T21:33:45.219Z,101025.42
2023-04-19T21:36:13.607Z,101023.45
2023-04-19T21:38:41.767Z,101024.17
2023-04-19T21:41:09.958Z,101025.41
2023-04-19T21:43:38.698Z,101027.22
2023-04-19T21:46:06.874Z,101024.70
2023-04-19T21:48:35.205Z,101018.28
2023-04-19T21:51:03.683Z,101020.95
2023-04-19T21:53:31.824Z,101018.10
2023-04-19T21:56:00.054Z,101016.85
2023-04-19T21:58:28.358Z,101013.29
2023-04-19T22:00:56.575Z,101013.63
2023-04-19T22:03:24.840Z,101019.17
2023-04-19T22:05:53.181Z,101020.59
2023-04-19T22:08:21.451Z,101023.61
2023-04-19T22:10:49.592Z,101024.15
2023-04-19T22:13:18.377Z,101026.29
2023-04-19T22:15:46.688Z,101028.98
2023-04-19T22:18:14.975Z,101027.89
2023-04-19T22:20:43.316Z,101021.30
2023-04-19T22:23:11.564Z,101014.69
2023-04-19T22:25:39.746Z,101012.89
2023-04-19T22:28:07.981Z,101015.71
2023-04-19T22:30:36.184Z,101015.89
2023-04-19T22:33:04.496Z,101011.08
2023-04-19T22:35:33.616Z,101012.50
2023-04-19T22:38:01.886Z,101017.31
2023-04-19T22:40:30.153Z,101022.31
2023-04-19T22:42:58.461Z,101023.03
2023-04-19T22:45:26.755Z,101019.48
2023-04-19T22:47:54.973Z,101019.66
2023-04-19T22:50:23.359Z,101018.02
2023-04-19T22:52:51.600Z,101014.64
2023-04-19T22:55:19.927Z,101013.21
2023-04-19T22:57:48.370Z,101009.29
2023-04-19T23:00:17.037Z,101012.86
2023-04-19T23:02:46.738Z,101013.75
2023-04-19T23:05:15.457Z,101015.87
2023-04-19T23:07:44.429Z,101015.70
2023-04-19T23:10:12.768Z,101015.70
2023-04-19T23:12:41.199Z,101011.05
2023-04-19T23:15:11.517Z,101009.63
2023-04-19T23:17:40.033Z,101006.25
2023-04-19T23:20:09.734Z,101003.58
2023-04-19T23:22:39.405Z,101001.61
2023-04-19T23:25:08.582Z,101000.17
2023-04-19T23:27:37.430Z,100996.60
2023-04-19T23:30:07.166Z,101000.17
2023-04-19T23:32:35.598Z,100997.86
2023-04-19T23:35:04.994Z,100991.96
2023-04-19T23:37:33.329Z,100987.33
2023-04-19T23:40:01.492Z,100983.93
2023-04-19T23:42:29.962Z,100976.44
2023-04-19T23:44:58.864Z,100976.96
2023-04-19T23:47:27.092Z,100973.04
2023-04-19T23:49:55.297Z,100963.95
2023-04-19T23:52:23.452Z,100957.50
2023-04-19T23:54:52.314Z,100953.06
2023-04-19T23:57:20.979Z,100953.95
2023-04-19T23:59:49.946Z,100949.84
